Midland, Texas
Current Conditions -  °F | °C
As of 10:55 PM on Wednesday 22 Oct 2014 (Local Time) from KMDD Reporting Station
Clear Clear  
Wind Chill: 61°   Ceiling: Unl
Heat Index: 61°   Visibility: 10mi
Dew Point: 54°   Wind: 9mph
Humidity: 77%   Direction: 150°SSE
Pressure: 30.14"   Gusts: NA
Location:  32°N, 102.07°W
Report Text: KMDD 230355Z AUTO 15008KT 10SM CLR 16/12 A3014 RMK AO2 T01620121
Loading
Personal Weather Stations






























Interactive Weather Map
Tropical Storm Tracking
New forecast layout! Learn more

10-Day Weather Forecast

Advertisements
Track Severe Weather on mobile